map of SDK home
SDK - Airport
Location
City:  Sandakan, Sabah, Malaysia
ICAO:WBKS
IATA:SDK

Details
Type:Airport (Aerodrome, Airfield)
Use:Public/Civil
Latitude:5°54'03"N (5.900897)
Longitude:118°03'34"E (118.059486)
Datum:WGS 1984
Elevation:46 ft (14 m)
Variation:0.61°W (WMM2015 magnetic declination)
-0.09° annual change
Runways:1
Longest:7000 × 151 ft (2134 × 46 m), paved

Time
Time Zone:UTC+8
Local Time:

Weather
METAR:WBKS 210800Z 02006KT 340V060 9999 FEW016 BKN290 29/24 Q1007
TAF:WBKS 210500Z 2106/2206 01010KT 9999 SCT016

Related Locations
Nearby:
Farthest:MNX: 12405 mi / 19963 km
Manicoré, AM, BR

Find:

   beyond  
but within

Other Information
Maps:
NOTAMs:
Links:
Sources:

  
  • flag of Malaysia
  • flag of Sabah
  

Sectional Chart

Flight Planning
at skyvector.com

Satellite Image

Google Maps Satellite view

 

Copyright © 2004-2019 Karl L. Swartz. All rights reserved.
The Great Circle Mapper name and logo are trademarks of the Great Circle Mapper.
All other trademarks mentioned herein belong to their respective owners.
Please see credits for attibutions and further copyright information.

  Follow gcmap on Facebook Follow gcmap on Twitter Follow gcmap on Google+ GCmap on LinkedIn

hCard Microformat

Geo Microformat